sensor_id;sensor_type;location;lat;lon;timestamp;temperature;humidity
2439;DHT22;14509;47.992;7.848;2022-09-09T00:02:02;21.20;52.30
2439;DHT22;14509;47.992;7.848;2022-09-09T00:04:12;21.10;52.00
2439;DHT22;14509;47.992;7.848;2022-09-09T00:06:21;21.40;52.00
2439;DHT22;14509;47.992;7.848;2022-09-09T00:08:35;21.30;51.60
2439;DHT22;14509;47.992;7.848;2022-09-09T00:10:43;21.40;51.40
2439;DHT22;14509;47.992;7.848;2022-09-09T00:12:53;21.40;51.10
2439;DHT22;14509;47.992;7.848;2022-09-09T00:14:59;21.50;51.10
2439;DHT22;14509;47.992;7.848;2022-09-09T00:17:04;21.40;50.90
2439;DHT22;14509;47.992;7.848;2022-09-09T00:19:22;21.50;50.90
2439;DHT22;14509;47.992;7.848;2022-09-09T00:21:30;21.40;50.90
2439;DHT22;14509;47.992;7.848;2022-09-09T00:23:38;21.40;51.00
2439;DHT22;14509;47.992;7.848;2022-09-09T00:25:46;21.30;51.00
2439;DHT22;14509;47.992;7.848;2022-09-09T00:27:52;21.20;51.10
2439;DHT22;14509;47.992;7.848;2022-09-09T00:29:56;21.30;51.90
2439;DHT22;14509;47.992;7.848;2022-09-09T00:32:05;22.40;52.30
2439;DHT22;14509;47.992;7.848;2022-09-09T00:34:13;21.40;51.60
2439;DHT22;14509;47.992;7.848;2022-09-09T00:36:20;21.30;52.00
2439;DHT22;14509;47.992;7.848;2022-09-09T00:38:25;21.30;51.30
2439;DHT22;14509;47.992;7.848;2022-09-09T00:40:33;21.40;51.40
2439;DHT22;14509;47.992;7.848;2022-09-09T00:42:40;21.40;51.30
2439;DHT22;14509;47.992;7.848;2022-09-09T00:45:02;21.40;51.10
2439;DHT22;14509;47.992;7.848;2022-09-09T00:47:20;21.50;51.10
2439;DHT22;14509;47.992;7.848;2022-09-09T00:49:37;21.50;50.90
2439;DHT22;14509;47.992;7.848;2022-09-09T00:51:47;21.70;50.90
2439;DHT22;14509;47.992;7.848;2022-09-09T00:54:11;21.60;50.70
2439;DHT22;14509;47.992;7.848;2022-09-09T01:01:43;21.70;50.50
2439;DHT22;14509;47.992;7.848;2022-09-09T01:08:18;22.20;51.20
2439;DHT22;14509;47.992;7.848;2022-09-09T01:24:38;21.90;49.90
2439;DHT22;14509;47.992;7.848;2022-09-09T01:27:13;21.80;50.00
2439;DHT22;14509;47.992;7.848;2022-09-09T01:29:20;21.90;50.10
2439;DHT22;14509;47.992;7.848;2022-09-09T01:31:27;22.00;50.20
2439;DHT22;14509;47.992;7.848;2022-09-09T01:33:30;21.90;50.10
2439;DHT22;14509;47.992;7.848;2022-09-09T01:35:39;21.90;50.00
2439;DHT22;14509;47.992;7.848;2022-09-09T01:37:42;22.00;50.00
2439;DHT22;14509;47.992;7.848;2022-09-09T01:39:44;22.00;50.00
2439;DHT22;14509;47.992;7.848;2022-09-09T01:41:49;22.10;50.00
2439;DHT22;14509;47.992;7.848;2022-09-09T01:43:55;22.00;50.00
2439;DHT22;14509;47.992;7.848;2022-09-09T01:46:01;22.20;50.20
2439;DHT22;14509;47.992;7.848;2022-09-09T01:48:04;22.10;50.40
2439;DHT22;14509;47.992;7.848;2022-09-09T01:50:20;22.00;51.00
2439;DHT22;14509;47.992;7.848;2022-09-09T01:52:23;21.90;51.20
2439;DHT22;14509;47.992;7.848;2022-09-09T01:54:27;21.70;51.50
2439;DHT22;14509;47.992;7.848;2022-09-09T01:56:40;21.50;51.90
2439;DHT22;14509;47.992;7.848;2022-09-09T01:59:09;21.30;52.40
2439;DHT22;14509;47.992;7.848;2022-09-09T02:01:21;21.20;53.00
2439;DHT22;14509;47.992;7.848;2022-09-09T02:03:28;21.10;53.40
2439;DHT22;14509;47.992;7.848;2022-09-09T02:05:47;21.00;53.80
2439;DHT22;14509;47.992;7.848;2022-09-09T02:08:03;21.00;54.00
2439;DHT22;14509;47.992;7.848;2022-09-09T02:10:19;20.90;54.00
2439;DHT22;14509;47.992;7.848;2022-09-09T02:12:30;20.90;54.30
2439;DHT22;14509;47.992;7.848;2022-09-09T02:14:39;21.00;54.40
2439;DHT22;14509;47.992;7.848;2022-09-09T02:16:47;21.20;54.60
2439;DHT22;14509;47.992;7.848;2022-09-09T02:18:52;21.20;54.80
2439;DHT22;14509;47.992;7.848;2022-09-09T02:21:03;21.20;55.00
2439;DHT22;14509;47.992;7.848;2022-09-09T02:23:07;21.30;54.90
2439;DHT22;14509;47.992;7.848;2022-09-09T02:25:14;21.30;54.90
2439;DHT22;14509;47.992;7.848;2022-09-09T02:27:18;21.40;54.80
2439;DHT22;14509;47.992;7.848;2022-09-09T02:29:24;21.50;54.90
2439;DHT22;14509;47.992;7.848;2022-09-09T02:31:30;21.50;54.80
2439;DHT22;14509;47.992;7.848;2022-09-09T02:33:42;21.50;54.80
2439;DHT22;14509;47.992;7.848;2022-09-09T02:35:48;21.60;54.90
2439;DHT22;14509;47.992;7.848;2022-09-09T02:37:58;21.60;55.00
2439;DHT22;14509;47.992;7.848;2022-09-09T02:40:02;21.60;55.00
2439;DHT22;14509;47.992;7.848;2022-09-09T02:42:05;21.60;55.10
2439;DHT22;14509;47.992;7.848;2022-09-09T02:44:10;21.60;55.20
2439;DHT22;14509;47.992;7.848;2022-09-09T02:46:24;21.60;55.40
2439;DHT22;14509;47.992;7.848;2022-09-09T02:48:36;21.60;55.50
2439;DHT22;14509;47.992;7.848;2022-09-09T02:50:54;21.60;55.50
2439;DHT22;14509;47.992;7.848;2022-09-09T02:53:06;21.70;55.70
2439;DHT22;14509;47.992;7.848;2022-09-09T02:55:20;21.60;55.80
2439;DHT22;14509;47.992;7.848;2022-09-09T02:57:31;21.60;55.80
2439;DHT22;14509;47.992;7.848;2022-09-09T02:59:35;21.60;55.80
2439;DHT22;14509;47.992;7.848;2022-09-09T03:01:36;21.60;55.70
2439;DHT22;14509;47.992;7.848;2022-09-09T03:03:42;21.60;55.60
2439;DHT22;14509;47.992;7.848;2022-09-09T03:05:49;21.60;55.60
2439;DHT22;14509;47.992;7.848;2022-09-09T03:07:51;21.60;55.70
2439;DHT22;14509;47.992;7.848;2022-09-09T03:09:54;21.60;55.80
2439;DHT22;14509;47.992;7.848;2022-09-09T03:11:59;21.60;55.90
2439;DHT22;14509;47.992;7.848;2022-09-09T03:14:03;21.50;55.80
2439;DHT22;14509;47.992;7.848;2022-09-09T03:16:06;21.60;56.00
2439;DHT22;14509;47.992;7.848;2022-09-09T03:18:14;21.50;56.00
2439;DHT22;14509;47.992;7.848;2022-09-09T03:20:17;21.60;56.20
2439;DHT22;14509;47.992;7.848;2022-09-09T03:22:19;21.60;56.20
2439;DHT22;14509;47.992;7.848;2022-09-09T03:24:21;21.60;56.20
2439;DHT22;14509;47.992;7.848;2022-09-09T03:26:24;21.50;56.10
2439;DHT22;14509;47.992;7.848;2022-09-09T03:28:26;21.60;56.10
2439;DHT22;14509;47.992;7.848;2022-09-09T03:30:32;21.60;56.00
2439;DHT22;14509;47.992;7.848;2022-09-09T03:32:34;21.60;55.90
2439;DHT22;14509;47.992;7.848;2022-09-09T03:34:36;22.30;56.30
2439;DHT22;14509;47.992;7.848;2022-09-09T03:36:44;21.70;55.70
2439;DHT22;14509;47.992;7.848;2022-09-09T03:38:46;21.70;55.60
2439;DHT22;14509;47.992;7.848;2022-09-09T03:40:50;21.70;55.50
2439;DHT22;14509;47.992;7.848;2022-09-09T03:42:56;21.80;55.50
2439;DHT22;14509;47.992;7.848;2022-09-09T03:44:59;21.80;55.30
2439;DHT22;14509;47.992;7.848;2022-09-09T03:47:02;21.60;55.10
2439;DHT22;14509;47.992;7.848;2022-09-09T03:49:04;21.80;55.20
2439;DHT22;14509;47.992;7.848;2022-09-09T03:51:06;21.70;55.10
2439;DHT22;14509;47.992;7.848;2022-09-09T03:53:10;21.80;55.20
2439;DHT22;14509;47.992;7.848;2022-09-09T03:55:12;22.60;55.80
2439;DHT22;14509;47.992;7.848;2022-09-09T03:57:14;21.70;55.00
2439;DHT22;14509;47.992;7.848;2022-09-09T03:59:17;21.70;55.00
2439;DHT22;14509;47.992;7.848;2022-09-09T04:01:19;21.70;54.90
2439;DHT22;14509;47.992;7.848;2022-09-09T04:03:21;21.70;54.10
2439;DHT22;14509;47.992;7.848;2022-09-09T04:05:25;21.60;53.70
2439;DHT22;14509;47.992;7.848;2022-09-09T04:07:27;21.70;53.70
2439;DHT22;14509;47.992;7.848;2022-09-09T04:09:31;21.80;53.60
2439;DHT22;14509;47.992;7.848;2022-09-09T04:11:33;21.80;53.40
2439;DHT22;14509;47.992;7.848;2022-09-09T04:13:37;21.90;53.10
2439;DHT22;14509;47.992;7.848;2022-09-09T04:15:40;22.10;53.00
2439;DHT22;14509;47.992;7.848;2022-09-09T04:17:42;22.00;52.80
2439;DHT22;14509;47.992;7.848;2022-09-09T04:19:44;21.90;52.60
2439;DHT22;14509;47.992;7.848;2022-09-09T04:21:47;22.00;52.70
2439;DHT22;14509;47.992;7.848;2022-09-09T04:23:53;22.10;52.80
2439;DHT22;14509;47.992;7.848;2022-09-09T04:25:58;22.00;52.60
2439;DHT22;14509;47.992;7.848;2022-09-09T04:28:01;22.00;52.70
2439;DHT22;14509;47.992;7.848;2022-09-09T04:30:04;22.00;52.70
2439;DHT22;14509;47.992;7.848;2022-09-09T04:32:07;22.00;52.80
2439;DHT22;14509;47.992;7.848;2022-09-09T04:34:09;22.00;52.80
2439;DHT22;14509;47.992;7.848;2022-09-09T04:36:11;22.00;52.80
2439;DHT22;14509;47.992;7.848;2022-09-09T04:38:14;22.00;52.80
2439;DHT22;14509;47.992;7.848;2022-09-09T04:40:16;22.00;52.70
2439;DHT22;14509;47.992;7.848;2022-09-09T04:42:19;22.10;52.70
2439;DHT22;14509;47.992;7.848;2022-09-09T04:44:21;22.10;52.70
2439;DHT22;14509;47.992;7.848;2022-09-09T04:46:23;22.90;53.30
2439;DHT22;14509;47.992;7.848;2022-09-09T04:48:26;22.20;52.70
2439;DHT22;14509;47.992;7.848;2022-09-09T04:50:28;22.20;52.60
2439;DHT22;14509;47.992;7.848;2022-09-09T04:52:34;22.30;52.50
2439;DHT22;14509;47.992;7.848;2022-09-09T04:54:36;22.30;52.50
2439;DHT22;14509;47.992;7.848;2022-09-09T04:56:39;22.30;52.40
2439;DHT22;14509;47.992;7.848;2022-09-09T04:58:43;22.30;52.30
2439;DHT22;14509;47.992;7.848;2022-09-09T05:00:46;22.60;52.50
2439;DHT22;14509;47.992;7.848;2022-09-09T05:02:48;22.30;52.20
2439;DHT22;14509;47.992;7.848;2022-09-09T05:04:50;22.40;52.80
2439;DHT22;14509;47.992;7.848;2022-09-09T05:06:52;22.40;52.20
2439;DHT22;14509;47.992;7.848;2022-09-09T05:08:54;22.40;52.70
2439;DHT22;14509;47.992;7.848;2022-09-09T05:11:02;22.40;52.10
2439;DHT22;14509;47.992;7.848;2022-09-09T05:13:04;22.40;52.10
2439;DHT22;14509;47.992;7.848;2022-09-09T05:15:09;22.40;52.10
2439;DHT22;14509;47.992;7.848;2022-09-09T05:17:12;22.40;52.00
2439;DHT22;14509;47.992;7.848;2022-09-09T05:19:15;22.50;52.00
2439;DHT22;14509;47.992;7.848;2022-09-09T05:21:23;22.50;51.90
2439;DHT22;14509;47.992;7.848;2022-09-09T05:23:26;22.60;51.90
2439;DHT22;14509;47.992;7.848;2022-09-09T05:25:28;22.60;51.80
2439;DHT22;14509;47.992;7.848;2022-09-09T05:27:31;22.60;51.70
2439;DHT22;14509;47.992;7.848;2022-09-09T05:29:35;22.60;51.70
2439;DHT22;14509;47.992;7.848;2022-09-09T05:31:40;22.70;51.70
2439;DHT22;14509;47.992;7.848;2022-09-09T05:33:47;22.70;51.60
2439;DHT22;14509;47.992;7.848;2022-09-09T05:35:55;22.80;51.60
2439;DHT22;14509;47.992;7.848;2022-09-09T05:37:59;22.70;51.50
2439;DHT22;14509;47.992;7.848;2022-09-09T05:40:02;22.80;51.50
2439;DHT22;14509;47.992;7.848;2022-09-09T05:42:05;22.80;51.40
2439;DHT22;14509;47.992;7.848;2022-09-09T05:44:07;22.90;51.30
2439;DHT22;14509;47.992;7.848;2022-09-09T05:46:15;22.90;51.10
2439;DHT22;14509;47.992;7.848;2022-09-09T05:48:18;22.90;51.10
2439;DHT22;14509;47.992;7.848;2022-09-09T05:50:20;22.90;51.10
2439;DHT22;14509;47.992;7.848;2022-09-09T05:52:24;23.00;51.10
2439;DHT22;14509;47.992;7.848;2022-09-09T05:54:29;23.00;51.00
2439;DHT22;14509;47.992;7.848;2022-09-09T05:56:31;23.30;51.20
2439;DHT22;14509;47.992;7.848;2022-09-09T05:58:34;23.00;50.70
2439;DHT22;14509;47.992;7.848;2022-09-09T06:00:39;23.00;50.70
2439;DHT22;14509;47.992;7.848;2022-09-09T06:02:41;23.20;50.70
2439;DHT22;14509;47.992;7.848;2022-09-09T06:04:48;23.30;50.80
2439;DHT22;14509;47.992;7.848;2022-09-09T06:06:50;23.20;50.40
2439;DHT22;14509;47.992;7.848;2022-09-09T06:08:56;23.30;50.40
2439;DHT22;14509;47.992;7.848;2022-09-09T06:11:04;23.30;50.20
2439;DHT22;14509;47.992;7.848;2022-09-09T06:13:07;23.30;50.10
2439;DHT22;14509;47.992;7.848;2022-09-09T06:15:11;23.40;50.10
2439;DHT22;14509;47.992;7.848;2022-09-09T06:17:13;23.40;50.00
2439;DHT22;14509;47.992;7.848;2022-09-09T06:19:15;23.40;50.00
2439;DHT22;14509;47.992;7.848;2022-09-09T06:21:20;23.50;49.90
2439;DHT22;14509;47.992;7.848;2022-09-09T06:23:22;23.50;49.90
2439;DHT22;14509;47.992;7.848;2022-09-09T06:25:24;23.50;49.80
2439;DHT22;14509;47.992;7.848;2022-09-09T06:27:27;23.60;49.80
2439;DHT22;14509;47.992;7.848;2022-09-09T06:29:29;23.60;49.60
2439;DHT22;14509;47.992;7.848;2022-09-09T06:31:32;23.70;49.60
2439;DHT22;14509;47.992;7.848;2022-09-09T06:33:41;23.70;49.60
2439;DHT22;14509;47.992;7.848;2022-09-09T06:35:51;23.70;49.60
2439;DHT22;14509;47.992;7.848;2022-09-09T06:37:56;23.70;50.20
2439;DHT22;14509;47.992;7.848;2022-09-09T06:39:59;23.70;49.60
2439;DHT22;14509;47.992;7.848;2022-09-09T06:42:01;23.80;49.70
2439;DHT22;14509;47.992;7.848;2022-09-09T06:44:30;23.90;49.50
2439;DHT22;14509;47.992;7.848;2022-09-09T06:46:34;23.90;49.00
2439;DHT22;14509;47.992;7.848;2022-09-09T06:48:38;23.90;49.00
2439;DHT22;14509;47.992;7.848;2022-09-09T06:50:41;23.80;48.80
2439;DHT22;14509;47.992;7.848;2022-09-09T06:52:46;23.70;49.10
2439;DHT22;14509;47.992;7.848;2022-09-09T06:54:50;23.60;49.20
2439;DHT22;14509;47.992;7.848;2022-09-09T06:56:52;23.70;49.60
2439;DHT22;14509;47.992;7.848;2022-09-09T06:58:58;23.40;49.60
2439;DHT22;14509;47.992;7.848;2022-09-09T07:01:05;23.60;50.10
2439;DHT22;14509;47.992;7.848;2022-09-09T07:03:09;23.40;50.10
2439;DHT22;14509;47.992;7.848;2022-09-09T07:05:11;23.50;50.00
2439;DHT22;14509;47.992;7.848;2022-09-09T07:07:15;23.80;50.10
2439;DHT22;14509;47.992;7.848;2022-09-09T07:09:18;23.60;49.90
2439;DHT22;14509;47.992;7.848;2022-09-09T07:11:26;23.70;49.80
2439;DHT22;14509;47.992;7.848;2022-09-09T07:13:30;23.80;49.50
2439;DHT22;14509;47.992;7.848;2022-09-09T07:15:32;23.90;49.40
2439;DHT22;14509;47.992;7.848;2022-09-09T07:17:34;23.90;49.00
2439;DHT22;14509;47.992;7.848;2022-09-09T07:19:36;23.90;48.90
2439;DHT22;14509;47.992;7.848;2022-09-09T07:21:39;24.90;49.50
2439;DHT22;14509;47.992;7.848;2022-09-09T07:23:42;24.10;48.20
2439;DHT22;14509;47.992;7.848;2022-09-09T07:25:44;24.10;47.90
2439;DHT22;14509;47.992;7.848;2022-09-09T07:27:48;24.10;48.10
2439;DHT22;14509;47.992;7.848;2022-09-09T07:29:50;24.20;48.00
2439;DHT22;14509;47.992;7.848;2022-09-09T07:31:52;24.20;48.00
2439;DHT22;14509;47.992;7.848;2022-09-09T07:34:00;24.30;47.80
2439;DHT22;14509;47.992;7.848;2022-09-09T07:36:05;24.40;47.90
2439;DHT22;14509;47.992;7.848;2022-09-09T07:38:08;24.60;47.70
2439;DHT22;14509;47.992;7.848;2022-09-09T07:40:10;24.70;47.20
2439;DHT22;14509;47.992;7.848;2022-09-09T07:42:12;25.00;46.90
2439;DHT22;14509;47.992;7.848;2022-09-09T07:44:18;24.90;46.70
2439;DHT22;14509;47.992;7.848;2022-09-09T07:46:25;25.00;46.60
2439;DHT22;14509;47.992;7.848;2022-09-09T07:48:27;24.90;46.60
2439;DHT22;14509;47.992;7.848;2022-09-09T07:50:30;24.90;46.50
2439;DHT22;14509;47.992;7.848;2022-09-09T07:52:33;25.10;46.70
2439;DHT22;14509;47.992;7.848;2022-09-09T07:54:38;25.00;46.50
2439;DHT22;14509;47.992;7.848;2022-09-09T07:56:41;25.10;46.30
2439;DHT22;14509;47.992;7.848;2022-09-09T07:58:45;25.10;46.10
2439;DHT22;14509;47.992;7.848;2022-09-09T08:00:49;25.10;46.00
2439;DHT22;14509;47.992;7.848;2022-09-09T08:02:51;25.20;46.00
2439;DHT22;14509;47.992;7.848;2022-09-09T08:04:55;25.60;46.10
2439;DHT22;14509;47.992;7.848;2022-09-09T08:06:59;25.90;46.20
2439;DHT22;14509;47.992;7.848;2022-09-09T08:09:03;25.10;45.90
2439;DHT22;14509;47.992;7.848;2022-09-09T08:11:09;25.10;46.30
2439;DHT22;14509;47.992;7.848;2022-09-09T08:13:12;25.00;46.40
2439;DHT22;14509;47.992;7.848;2022-09-09T08:15:14;25.10;46.60
2439;DHT22;14509;47.992;7.848;2022-09-09T08:17:19;25.10;46.60
2439;DHT22;14509;47.992;7.848;2022-09-09T08:19:21;25.10;46.40
2439;DHT22;14509;47.992;7.848;2022-09-09T08:21:26;25.10;46.50
2439;DHT22;14509;47.992;7.848;2022-09-09T08:23:29;25.00;46.70
2439;DHT22;14509;47.992;7.848;2022-09-09T08:25:31;25.10;46.70
2439;DHT22;14509;47.992;7.848;2022-09-09T08:27:35;25.10;46.60
2439;DHT22;14509;47.992;7.848;2022-09-09T08:29:38;25.10;46.60
2439;DHT22;14509;47.992;7.848;2022-09-09T08:31:42;25.10;46.30
2439;DHT22;14509;47.992;7.848;2022-09-09T08:33:47;25.10;46.50
2439;DHT22;14509;47.992;7.848;2022-09-09T08:35:52;25.00;46.60
2439;DHT22;14509;47.992;7.848;2022-09-09T08:37:54;25.00;46.60
2439;DHT22;14509;47.992;7.848;2022-09-09T08:39:56;25.00;46.70
2439;DHT22;14509;47.992;7.848;2022-09-09T08:42:27;25.00;46.60
2439;DHT22;14509;47.992;7.848;2022-09-09T08:44:45;25.00;46.20
2439;DHT22;14509;47.992;7.848;2022-09-09T08:46:59;25.00;46.10
2439;DHT22;14509;47.992;7.848;2022-09-09T08:49:10;25.00;46.20
2439;DHT22;14509;47.992;7.848;2022-09-09T08:51:16;25.10;46.10
2439;DHT22;14509;47.992;7.848;2022-09-09T08:53:20;25.30;46.00
2439;DHT22;14509;47.992;7.848;2022-09-09T08:55:31;25.40;45.30
2439;DHT22;14509;47.992;7.848;2022-09-09T08:57:37;25.60;44.80
2439;DHT22;14509;47.992;7.848;2022-09-09T08:59:39;25.80;44.30
2439;DHT22;14509;47.992;7.848;2022-09-09T09:01:48;25.90;44.10
2439;DHT22;14509;47.992;7.848;2022-09-09T09:04:05;26.00;43.80
2439;DHT22;14509;47.992;7.848;2022-09-09T09:06:21;26.00;43.30
2439;DHT22;14509;47.992;7.848;2022-09-09T09:08:32;26.00;43.10
2439;DHT22;14509;47.992;7.848;2022-09-09T09:10:45;26.10;43.10
2439;DHT22;14509;47.992;7.848;2022-09-09T09:12:53;26.20;42.90
2439;DHT22;14509;47.992;7.848;2022-09-09T09:14:56;26.10;42.60
2439;DHT22;14509;47.992;7.848;2022-09-09T09:17:02;26.10;42.50
2439;DHT22;14509;47.992;7.848;2022-09-09T09:19:13;26.10;42.50
2439;DHT22;14509;47.992;7.848;2022-09-09T09:21:20;26.20;42.70
2439;DHT22;14509;47.992;7.848;2022-09-09T09:23:26;26.30;42.30
2439;DHT22;14509;47.992;7.848;2022-09-09T09:25:37;26.40;41.40
2439;DHT22;14509;47.992;7.848;2022-09-09T09:27:45;26.60;41.20
2439;DHT22;14509;47.992;7.848;2022-09-09T09:29:48;26.80;40.70
2439;DHT22;14509;47.992;7.848;2022-09-09T09:31:55;26.90;39.90
2439;DHT22;14509;47.992;7.848;2022-09-09T09:33:58;26.90;39.40
2439;DHT22;14509;47.992;7.848;2022-09-09T09:36:05;27.10;39.00
2439;DHT22;14509;47.992;7.848;2022-09-09T09:38:16;26.80;38.30
2439;DHT22;14509;47.992;7.848;2022-09-09T09:40:21;26.50;37.60
2439;DHT22;14509;47.992;7.848;2022-09-09T09:42:24;26.70;37.90
2439;DHT22;14509;47.992;7.848;2022-09-09T09:44:31;26.70;38.00
2439;DHT22;14509;47.992;7.848;2022-09-09T09:46:43;26.70;38.10
2439;DHT22;14509;47.992;7.848;2022-09-09T09:48:56;26.80;37.50
2439;DHT22;14509;47.992;7.848;2022-09-09T09:51:00;26.70;37.10
2439;DHT22;14509;47.992;7.848;2022-09-09T09:53:05;27.80;38.00
2439;DHT22;14509;47.992;7.848;2022-09-09T09:55:13;26.60;37.30
2439;DHT22;14509;47.992;7.848;2022-09-09T09:57:18;26.60;37.20
2439;DHT22;14509;47.992;7.848;2022-09-09T09:59:34;26.50;37.10
2439;DHT22;14509;47.992;7.848;2022-09-09T10:01:37;26.60;37.20
2439;DHT22;14509;47.992;7.848;2022-09-09T10:03:50;26.80;37.40
2439;DHT22;14509;47.992;7.848;2022-09-09T10:05:53;26.70;37.50
2439;DHT22;14509;47.992;7.848;2022-09-09T10:08:10;26.70;37.10
2439;DHT22;14509;47.992;7.848;2022-09-09T10:10:15;27.00;37.10
2439;DHT22;14509;47.992;7.848;2022-09-09T10:12:30;27.30;35.90
2439;DHT22;14509;47.992;7.848;2022-09-09T10:14:42;27.60;35.90
2439;DHT22;14509;47.992;7.848;2022-09-09T10:16:55;27.80;35.00
2439;DHT22;14509;47.992;7.848;2022-09-09T10:19:00;28.30;34.00
2439;DHT22;14509;47.992;7.848;2022-09-09T10:21:10;28.50;33.70
2439;DHT22;14509;47.992;7.848;2022-09-09T10:23:29;28.80;32.90
2439;DHT22;14509;47.992;7.848;2022-09-09T10:25:43;29.00;32.20
2439;DHT22;14509;47.992;7.848;2022-09-09T10:28:03;29.10;31.90
2439;DHT22;14509;47.992;7.848;2022-09-09T10:30:14;29.30;31.10
2439;DHT22;14509;47.992;7.848;2022-09-09T10:32:35;29.30;31.00
2439;DHT22;14509;47.992;7.848;2022-09-09T10:34:53;29.30;30.80
2439;DHT22;14509;47.992;7.848;2022-09-09T10:36:57;29.20;30.60
2439;DHT22;14509;47.992;7.848;2022-09-09T10:39:03;29.00;31.60
2439;DHT22;14509;47.992;7.848;2022-09-09T10:41:23;28.70;32.10
2439;DHT22;14509;47.992;7.848;2022-09-09T10:43:45;28.30;32.40
2439;DHT22;14509;47.992;7.848;2022-09-09T10:45:57;27.90;34.30
2439;DHT22;14509;47.992;7.848;2022-09-09T10:50:49;27.50;35.20
2439;DHT22;14509;47.992;7.848;2022-09-09T10:52:59;27.60;35.50
2439;DHT22;14509;47.992;7.848;2022-09-09T10:55:10;27.70;35.70
2439;DHT22;14509;47.992;7.848;2022-09-09T10:57:17;27.90;34.50
2439;DHT22;14509;47.992;7.848;2022-09-09T10:59:27;28.00;33.60
2439;DHT22;14509;47.992;7.848;2022-09-09T11:01:33;28.10;33.20
2439;DHT22;14509;47.992;7.848;2022-09-09T11:03:39;28.20;33.40
2439;DHT22;14509;47.992;7.848;2022-09-09T11:05:44;28.20;33.60
2439;DHT22;14509;47.992;7.848;2022-09-09T11:07:49;28.40;33.70
2439;DHT22;14509;47.992;7.848;2022-09-09T11:09:59;28.50;33.90
2439;DHT22;14509;47.992;7.848;2022-09-09T11:12:05;28.90;34.00
2439;DHT22;14509;47.992;7.848;2022-09-09T11:14:18;28.70;32.70
2439;DHT22;14509;47.992;7.848;2022-09-09T11:16:25;28.70;33.30
2439;DHT22;14509;47.992;7.848;2022-09-09T11:18:29;28.40;33.90
2439;DHT22;14509;47.992;7.848;2022-09-09T11:20:33;28.10;34.40
2439;DHT22;14509;47.992;7.848;2022-09-09T11:22:37;27.80;35.10
2439;DHT22;14509;47.992;7.848;2022-09-09T11:24:45;27.50;35.40
2439;DHT22;14509;47.992;7.848;2022-09-09T11:26:52;27.30;35.70
2439;DHT22;14509;47.992;7.848;2022-09-09T11:29:12;27.20;35.90
2439;DHT22;14509;47.992;7.848;2022-09-09T11:31:39;27.30;36.00
2439;DHT22;14509;47.992;7.848;2022-09-09T11:33:56;27.50;35.70
2439;DHT22;14509;47.992;7.848;2022-09-09T11:36:23;27.80;35.60
2439;DHT22;14509;47.992;7.848;2022-09-09T11:38:27;28.00;35.10
2439;DHT22;14509;47.992;7.848;2022-09-09T11:40:30;28.10;34.90
2439;DHT22;14509;47.992;7.848;2022-09-09T11:42:34;28.10;34.80
2439;DHT22;14509;47.992;7.848;2022-09-09T11:44:37;28.10;34.60
2439;DHT22;14509;47.992;7.848;2022-09-09T11:46:40;27.90;34.90
2439;DHT22;14509;47.992;7.848;2022-09-09T11:48:44;27.70;35.20
2439;DHT22;14509;47.992;7.848;2022-09-09T11:50:46;27.90;35.60
2439;DHT22;14509;47.992;7.848;2022-09-09T11:53:17;27.70;35.40
2439;DHT22;14509;47.992;7.848;2022-09-09T11:55:26;28.00;35.50
2439;DHT22;14509;47.992;7.848;2022-09-09T11:57:33;28.20;34.50
2439;DHT22;14509;47.992;7.848;2022-09-09T11:59:37;28.40;34.50
2439;DHT22;14509;47.992;7.848;2022-09-09T12:01:41;28.40;34.50
2439;DHT22;14509;47.992;7.848;2022-09-09T12:03:46;28.30;34.00
2439;DHT22;14509;47.992;7.848;2022-09-09T12:05:50;28.20;33.70
2439;DHT22;14509;47.992;7.848;2022-09-09T12:07:57;28.60;33.20
2439;DHT22;14509;47.992;7.848;2022-09-09T12:10:04;28.60;31.00
2439;DHT22;14509;47.992;7.848;2022-09-09T12:12:21;28.30;30.00
2439;DHT22;14509;47.992;7.848;2022-09-09T12:14:37;28.30;30.30
2439;DHT22;14509;47.992;7.848;2022-09-09T12:16:39;28.30;30.50
2439;DHT22;14509;47.992;7.848;2022-09-09T12:18:41;28.40;30.20
2439;DHT22;14509;47.992;7.848;2022-09-09T12:20:57;28.50;29.90
2439;DHT22;14509;47.992;7.848;2022-09-09T12:25:40;28.60;29.80
2439;DHT22;14509;47.992;7.848;2022-09-09T12:27:56;28.70;30.10
2439;DHT22;14509;47.992;7.848;2022-09-09T12:30:08;28.70;30.20
2439;DHT22;14509;47.992;7.848;2022-09-09T12:32:12;28.60;30.40
2439;DHT22;14509;47.992;7.848;2022-09-09T12:34:19;28.60;30.90
2439;DHT22;14509;47.992;7.848;2022-09-09T12:36:30;28.60;31.20
2439;DHT22;14509;47.992;7.848;2022-09-09T12:38:36;28.70;31.20
2439;DHT22;14509;47.992;7.848;2022-09-09T12:40:38;28.90;31.30
2439;DHT22;14509;47.992;7.848;2022-09-09T12:42:40;29.10;31.20
2439;DHT22;14509;47.992;7.848;2022-09-09T12:44:51;29.20;31.10
2439;DHT22;14509;47.992;7.848;2022-09-09T12:46:55;29.40;31.30
2439;DHT22;14509;47.992;7.848;2022-09-09T12:48:59;29.50;31.00
2439;DHT22;14509;47.992;7.848;2022-09-09T12:51:01;29.50;30.40
2439;DHT22;14509;47.992;7.848;2022-09-09T12:53:09;29.40;30.60
2439;DHT22;14509;47.992;7.848;2022-09-09T12:55:18;29.30;31.10
2439;DHT22;14509;47.992;7.848;2022-09-09T12:57:23;29.20;31.60
2439;DHT22;14509;47.992;7.848;2022-09-09T12:59:34;29.00;32.00
2439;DHT22;14509;47.992;7.848;2022-09-09T13:01:37;28.90;32.20
2439;DHT22;14509;47.992;7.848;2022-09-09T13:03:43;28.90;31.80
2439;DHT22;14509;47.992;7.848;2022-09-09T13:05:48;28.80;31.60
2439;DHT22;14509;47.992;7.848;2022-09-09T13:07:50;28.80;31.40
2439;DHT22;14509;47.992;7.848;2022-09-09T13:09:52;28.70;31.70
2439;DHT22;14509;47.992;7.848;2022-09-09T13:11:56;28.50;31.90
2439;DHT22;14509;47.992;7.848;2022-09-09T13:13:59;28.40;32.50
2439;DHT22;14509;47.992;7.848;2022-09-09T13:16:02;28.30;32.80
2439;DHT22;14509;47.992;7.848;2022-09-09T13:18:10;28.10;33.00
2439;DHT22;14509;47.992;7.848;2022-09-09T13:20:18;28.00;33.10
2439;DHT22;14509;47.992;7.848;2022-09-09T13:22:26;27.90;33.40
2439;DHT22;14509;47.992;7.848;2022-09-09T13:24:32;27.80;33.50
2439;DHT22;14509;47.992;7.848;2022-09-09T13:26:34;27.50;34.50
2439;DHT22;14509;47.992;7.848;2022-09-09T13:28:36;27.40;33.30
2439;DHT22;14509;47.992;7.848;2022-09-09T13:30:38;27.10;32.60
2439;DHT22;14509;47.992;7.848;2022-09-09T13:32:41;27.20;33.20
2439;DHT22;14509;47.992;7.848;2022-09-09T13:34:50;26.80;33.40
2439;DHT22;14509;47.992;7.848;2022-09-09T13:36:59;26.80;34.20
2439;DHT22;14509;47.992;7.848;2022-09-09T13:39:03;26.80;36.40
2439;DHT22;14509;47.992;7.848;2022-09-09T13:41:06;26.60;37.70
2439;DHT22;14509;47.992;7.848;2022-09-09T13:43:22;26.50;39.70
2439;DHT22;14509;47.992;7.848;2022-09-09T13:45:26;26.30;40.20
2439;DHT22;14509;47.992;7.848;2022-09-09T13:47:31;26.20;40.20
2439;DHT22;14509;47.992;7.848;2022-09-09T13:49:33;26.60;40.00
2439;DHT22;14509;47.992;7.848;2022-09-09T13:51:37;27.00;39.60
2439;DHT22;14509;47.992;7.848;2022-09-09T13:53:40;27.60;38.60
2439;DHT22;14509;47.992;7.848;2022-09-09T13:55:42;28.50;37.40
2439;DHT22;14509;47.992;7.848;2022-09-09T13:57:51;29.30;35.80
2439;DHT22;14509;47.992;7.848;2022-09-09T13:59:54;30.10;33.40
2439;DHT22;14509;47.992;7.848;2022-09-09T14:01:56;30.80;31.70